sensor_id;sensor_type;location;lat;lon;timestamp;P1;durP1;ratioP1;P2;durP2;ratioP2
3629;SDS011;1831;53.626;10.012;2022-08-26T00:01:13;14.40;;;9.43;;
3629;SDS011;1831;53.626;10.012;2022-08-26T00:03:42;11.90;;;8.50;;
3629;SDS011;1831;53.626;10.012;2022-08-26T00:06:09;12.90;;;8.80;;
3629;SDS011;1831;53.626;10.012;2022-08-26T00:08:37;17.13;;;8.10;;
3629;SDS011;1831;53.626;10.012;2022-08-26T00:11:04;15.37;;;10.40;;
3629;SDS011;1831;53.626;10.012;2022-08-26T00:13:31;11.97;;;8.10;;
3629;SDS011;1831;53.626;10.012;2022-08-26T00:15:59;13.77;;;8.43;;
3629;SDS011;1831;53.626;10.012;2022-08-26T00:18:27;11.30;;;8.90;;
3629;SDS011;1831;53.626;10.012;2022-08-26T00:20:55;10.43;;;8.30;;
3629;SDS011;1831;53.626;10.012;2022-08-26T00:23:22;11.20;;;8.10;;
3629;SDS011;1831;53.626;10.012;2022-08-26T00:25:49;17.73;;;9.30;;
3629;SDS011;1831;53.626;10.012;2022-08-26T00:28:16;14.03;;;8.97;;
3629;SDS011;1831;53.626;10.012;2022-08-26T00:30:43;11.13;;;8.80;;
3629;SDS011;1831;53.626;10.012;2022-08-26T00:33:12;10.93;;;8.47;;
3629;SDS011;1831;53.626;10.012;2022-08-26T00:35:39;16.37;;;8.40;;
3629;SDS011;1831;53.626;10.012;2022-08-26T00:38:08;13.10;;;9.17;;
3629;SDS011;1831;53.626;10.012;2022-08-26T00:40:36;15.30;;;9.57;;
3629;SDS011;1831;53.626;10.012;2022-08-26T00:43:05;12.97;;;8.90;;
3629;SDS011;1831;53.626;10.012;2022-08-26T00:45:33;20.77;;;9.43;;
3629;SDS011;1831;53.626;10.012;2022-08-26T00:48:05;13.90;;;8.00;;
3629;SDS011;1831;53.626;10.012;2022-08-26T00:50:35;11.83;;;8.80;;
3629;SDS011;1831;53.626;10.012;2022-08-26T00:53:05;13.60;;;9.50;;
3629;SDS011;1831;53.626;10.012;2022-08-26T00:55:46;12.03;;;9.10;;
3629;SDS011;1831;53.626;10.012;2022-08-26T00:58:14;11.27;;;8.37;;
3629;SDS011;1831;53.626;10.012;2022-08-26T01:00:41;12.47;;;8.60;;
3629;SDS011;1831;53.626;10.012;2022-08-26T01:03:09;24.50;;;8.73;;
3629;SDS011;1831;53.626;10.012;2022-08-26T01:05:37;13.50;;;9.07;;
3629;SDS011;1831;53.626;10.012;2022-08-26T01:08:05;11.20;;;8.50;;
3629;SDS011;1831;53.626;10.012;2022-08-26T01:10:35;17.40;;;9.30;;
3629;SDS011;1831;53.626;10.012;2022-08-26T01:13:04;10.97;;;8.00;;
3629;SDS011;1831;53.626;10.012;2022-08-26T01:15:36;10.50;;;7.83;;
3629;SDS011;1831;53.626;10.012;2022-08-26T01:18:06;11.07;;;8.53;;
3629;SDS011;1831;53.626;10.012;2022-08-26T01:20:35;12.00;;;10.47;;
3629;SDS011;1831;53.626;10.012;2022-08-26T01:23:09;18.37;;;10.10;;
3629;SDS011;1831;53.626;10.012;2022-08-26T01:25:37;15.20;;;9.27;;
3629;SDS011;1831;53.626;10.012;2022-08-26T01:28:07;14.40;;;8.73;;
3629;SDS011;1831;53.626;10.012;2022-08-26T01:30:37;13.70;;;9.07;;
3629;SDS011;1831;53.626;10.012;2022-08-26T01:33:05;11.93;;;9.00;;
3629;SDS011;1831;53.626;10.012;2022-08-26T01:35:37;16.00;;;8.97;;
3629;SDS011;1831;53.626;10.012;2022-08-26T01:38:04;14.73;;;8.83;;
3629;SDS011;1831;53.626;10.012;2022-08-26T01:40:34;9.67;;;8.37;;
3629;SDS011;1831;53.626;10.012;2022-08-26T01:43:05;13.30;;;8.33;;
3629;SDS011;1831;53.626;10.012;2022-08-26T01:45:33;10.83;;;8.40;;
3629;SDS011;1831;53.626;10.012;2022-08-26T01:48:02;14.97;;;8.57;;
3629;SDS011;1831;53.626;10.012;2022-08-26T01:50:33;14.60;;;8.57;;
3629;SDS011;1831;53.626;10.012;2022-08-26T01:53:03;17.40;;;8.90;;
3629;SDS011;1831;53.626;10.012;2022-08-26T01:55:34;21.47;;;8.43;;
3629;SDS011;1831;53.626;10.012;2022-08-26T01:58:05;15.33;;;8.80;;
3629;SDS011;1831;53.626;10.012;2022-08-26T02:00:37;18.43;;;10.80;;
3629;SDS011;1831;53.626;10.012;2022-08-26T02:03:04;12.87;;;8.67;;
3629;SDS011;1831;53.626;10.012;2022-08-26T02:05:41;16.07;;;13.40;;
3629;SDS011;1831;53.626;10.012;2022-08-26T02:08:09;13.47;;;9.00;;
3629;SDS011;1831;53.626;10.012;2022-08-26T02:10:38;15.43;;;9.00;;
3629;SDS011;1831;53.626;10.012;2022-08-26T02:13:06;14.37;;;8.60;;
3629;SDS011;1831;53.626;10.012;2022-08-26T02:15:34;15.50;;;9.80;;
3629;SDS011;1831;53.626;10.012;2022-08-26T02:18:02;14.70;;;9.63;;
3629;SDS011;1831;53.626;10.012;2022-08-26T02:20:30;15.43;;;9.40;;
3629;SDS011;1831;53.626;10.012;2022-08-26T02:22:57;15.97;;;9.70;;
3629;SDS011;1831;53.626;10.012;2022-08-26T02:25:25;20.00;;;8.60;;
3629;SDS011;1831;53.626;10.012;2022-08-26T02:27:57;13.10;;;9.13;;
3629;SDS011;1831;53.626;10.012;2022-08-26T02:30:25;11.20;;;8.80;;
3629;SDS011;1831;53.626;10.012;2022-08-26T02:32:56;13.50;;;8.50;;
3629;SDS011;1831;53.626;10.012;2022-08-26T02:35:24;13.10;;;9.70;;
3629;SDS011;1831;53.626;10.012;2022-08-26T02:37:52;12.63;;;10.27;;
3629;SDS011;1831;53.626;10.012;2022-08-26T02:40:20;12.90;;;9.10;;
3629;SDS011;1831;53.626;10.012;2022-08-26T02:42:49;16.30;;;12.00;;
3629;SDS011;1831;53.626;10.012;2022-08-26T02:45:17;16.13;;;9.20;;
3629;SDS011;1831;53.626;10.012;2022-08-26T02:47:45;12.00;;;8.70;;
3629;SDS011;1831;53.626;10.012;2022-08-26T02:50:13;12.73;;;8.57;;
3629;SDS011;1831;53.626;10.012;2022-08-26T02:52:40;13.93;;;8.40;;
3629;SDS011;1831;53.626;10.012;2022-08-26T02:55:07;20.60;;;9.53;;
3629;SDS011;1831;53.626;10.012;2022-08-26T02:57:34;15.87;;;9.10;;
3629;SDS011;1831;53.626;10.012;2022-08-26T03:00:02;16.00;;;11.00;;
3629;SDS011;1831;53.626;10.012;2022-08-26T03:02:32;20.57;;;8.77;;
3629;SDS011;1831;53.626;10.012;2022-08-26T03:04:59;11.73;;;8.83;;
3629;SDS011;1831;53.626;10.012;2022-08-26T03:07:26;13.43;;;8.67;;
3629;SDS011;1831;53.626;10.012;2022-08-26T03:09:52;15.73;;;9.73;;
3629;SDS011;1831;53.626;10.012;2022-08-26T03:12:19;16.33;;;9.97;;
3629;SDS011;1831;53.626;10.012;2022-08-26T03:14:46;16.03;;;9.33;;
3629;SDS011;1831;53.626;10.012;2022-08-26T03:17:13;14.20;;;8.33;;
3629;SDS011;1831;53.626;10.012;2022-08-26T03:19:42;12.27;;;9.30;;
3629;SDS011;1831;53.626;10.012;2022-08-26T03:22:09;13.27;;;9.23;;
3629;SDS011;1831;53.626;10.012;2022-08-26T03:24:36;15.93;;;10.10;;
3629;SDS011;1831;53.626;10.012;2022-08-26T03:27:03;13.83;;;9.67;;
3629;SDS011;1831;53.626;10.012;2022-08-26T03:29:31;16.33;;;10.57;;
3629;SDS011;1831;53.626;10.012;2022-08-26T03:32:15;14.00;;;10.00;;
3629;SDS011;1831;53.626;10.012;2022-08-26T03:34:43;13.13;;;9.90;;
3629;SDS011;1831;53.626;10.012;2022-08-26T03:37:10;18.77;;;9.63;;
3629;SDS011;1831;53.626;10.012;2022-08-26T03:39:37;11.80;;;10.30;;
3629;SDS011;1831;53.626;10.012;2022-08-26T03:42:04;18.97;;;8.70;;
3629;SDS011;1831;53.626;10.012;2022-08-26T03:44:31;16.33;;;8.70;;
3629;SDS011;1831;53.626;10.012;2022-08-26T03:46:58;10.70;;;8.20;;
3629;SDS011;1831;53.626;10.012;2022-08-26T03:49:25;11.60;;;8.67;;
3629;SDS011;1831;53.626;10.012;2022-08-26T03:51:54;16.60;;;9.30;;
3629;SDS011;1831;53.626;10.012;2022-08-26T03:54:21;14.80;;;9.20;;
3629;SDS011;1831;53.626;10.012;2022-08-26T03:56:47;14.83;;;9.70;;
3629;SDS011;1831;53.626;10.012;2022-08-26T03:59:14;14.17;;;9.77;;
3629;SDS011;1831;53.626;10.012;2022-08-26T04:01:41;17.00;;;9.97;;
3629;SDS011;1831;53.626;10.012;2022-08-26T04:04:08;15.80;;;9.70;;
3629;SDS011;1831;53.626;10.012;2022-08-26T04:06:36;18.10;;;10.83;;
3629;SDS011;1831;53.626;10.012;2022-08-26T04:09:08;12.60;;;10.10;;
3629;SDS011;1831;53.626;10.012;2022-08-26T04:11:37;15.97;;;11.87;;
3629;SDS011;1831;53.626;10.012;2022-08-26T04:14:06;12.80;;;9.70;;
3629;SDS011;1831;53.626;10.012;2022-08-26T04:16:35;14.20;;;9.83;;
3629;SDS011;1831;53.626;10.012;2022-08-26T04:19:02;12.30;;;10.40;;
3629;SDS011;1831;53.626;10.012;2022-08-26T04:21:30;18.80;;;11.43;;
3629;SDS011;1831;53.626;10.012;2022-08-26T04:23:58;17.73;;;11.57;;
3629;SDS011;1831;53.626;10.012;2022-08-26T04:26:30;17.17;;;10.07;;
3629;SDS011;1831;53.626;10.012;2022-08-26T04:29:02;13.53;;;11.40;;
3629;SDS011;1831;53.626;10.012;2022-08-26T04:31:32;13.60;;;9.60;;
3629;SDS011;1831;53.626;10.012;2022-08-26T04:34:00;12.73;;;9.70;;
3629;SDS011;1831;53.626;10.012;2022-08-26T04:36:28;12.37;;;9.30;;
3629;SDS011;1831;53.626;10.012;2022-08-26T04:38:55;13.63;;;9.73;;
3629;SDS011;1831;53.626;10.012;2022-08-26T04:41:22;18.67;;;10.63;;
3629;SDS011;1831;53.626;10.012;2022-08-26T04:43:50;15.30;;;10.43;;
3629;SDS011;1831;53.626;10.012;2022-08-26T04:46:18;15.90;;;9.90;;
3629;SDS011;1831;53.626;10.012;2022-08-26T04:48:47;17.53;;;12.17;;
3629;SDS011;1831;53.626;10.012;2022-08-26T04:51:15;16.60;;;11.27;;
3629;SDS011;1831;53.626;10.012;2022-08-26T04:53:42;17.47;;;10.53;;
3629;SDS011;1831;53.626;10.012;2022-08-26T04:56:09;16.90;;;9.57;;
3629;SDS011;1831;53.626;10.012;2022-08-26T04:58:36;18.10;;;10.27;;
3629;SDS011;1831;53.626;10.012;2022-08-26T05:01:05;16.27;;;11.30;;
3629;SDS011;1831;53.626;10.012;2022-08-26T05:03:32;15.47;;;10.37;;
3629;SDS011;1831;53.626;10.012;2022-08-26T05:06:01;13.20;;;9.87;;
3629;SDS011;1831;53.626;10.012;2022-08-26T05:08:29;16.63;;;10.10;;
3629;SDS011;1831;53.626;10.012;2022-08-26T05:10:56;14.73;;;8.70;;
3629;SDS011;1831;53.626;10.012;2022-08-26T05:13:24;10.87;;;9.50;;
3629;SDS011;1831;53.626;10.012;2022-08-26T05:15:52;12.93;;;10.40;;
3629;SDS011;1831;53.626;10.012;2022-08-26T05:18:22;19.50;;;10.60;;
3629;SDS011;1831;53.626;10.012;2022-08-26T05:20:50;13.90;;;10.60;;
3629;SDS011;1831;53.626;10.012;2022-08-26T05:23:18;17.33;;;11.83;;
3629;SDS011;1831;53.626;10.012;2022-08-26T05:25:47;16.10;;;10.60;;
3629;SDS011;1831;53.626;10.012;2022-08-26T05:28:17;21.23;;;10.07;;
3629;SDS011;1831;53.626;10.012;2022-08-26T05:30:44;15.60;;;11.53;;
3629;SDS011;1831;53.626;10.012;2022-08-26T05:33:14;15.10;;;10.80;;
3629;SDS011;1831;53.626;10.012;2022-08-26T05:35:43;21.23;;;11.90;;
3629;SDS011;1831;53.626;10.012;2022-08-26T05:38:12;20.80;;;11.33;;
3629;SDS011;1831;53.626;10.012;2022-08-26T05:40:42;14.53;;;10.63;;
3629;SDS011;1831;53.626;10.012;2022-08-26T05:43:13;16.03;;;10.47;;
3629;SDS011;1831;53.626;10.012;2022-08-26T05:45:42;17.10;;;10.83;;
3629;SDS011;1831;53.626;10.012;2022-08-26T05:48:10;16.33;;;11.27;;
3629;SDS011;1831;53.626;10.012;2022-08-26T05:50:38;17.30;;;11.40;;
3629;SDS011;1831;53.626;10.012;2022-08-26T05:53:09;26.33;;;12.10;;
3629;SDS011;1831;53.626;10.012;2022-08-26T05:55:40;20.50;;;11.80;;
3629;SDS011;1831;53.626;10.012;2022-08-26T05:58:08;13.13;;;11.13;;
3629;SDS011;1831;53.626;10.012;2022-08-26T06:00:35;16.13;;;11.60;;
3629;SDS011;1831;53.626;10.012;2022-08-26T06:03:03;17.03;;;11.10;;
3629;SDS011;1831;53.626;10.012;2022-08-26T06:05:30;14.83;;;11.83;;
3629;SDS011;1831;53.626;10.012;2022-08-26T06:07:57;19.60;;;11.40;;
3629;SDS011;1831;53.626;10.012;2022-08-26T06:10:42;17.67;;;10.40;;
3629;SDS011;1831;53.626;10.012;2022-08-26T06:13:11;20.87;;;10.60;;
3629;SDS011;1831;53.626;10.012;2022-08-26T06:15:39;16.70;;;12.20;;
3629;SDS011;1831;53.626;10.012;2022-08-26T06:18:08;18.23;;;11.60;;
3629;SDS011;1831;53.626;10.012;2022-08-26T06:20:35;14.83;;;12.60;;
3629;SDS011;1831;53.626;10.012;2022-08-26T06:23:07;16.60;;;10.17;;
3629;SDS011;1831;53.626;10.012;2022-08-26T06:25:53;21.10;;;12.20;;
3629;SDS011;1831;53.626;10.012;2022-08-26T06:28:20;16.67;;;11.80;;
3629;SDS011;1831;53.626;10.012;2022-08-26T06:30:48;17.93;;;11.33;;
3629;SDS011;1831;53.626;10.012;2022-08-26T06:33:16;15.20;;;11.60;;
3629;SDS011;1831;53.626;10.012;2022-08-26T06:35:43;19.20;;;12.73;;
3629;SDS011;1831;53.626;10.012;2022-08-26T06:38:11;15.37;;;10.97;;
3629;SDS011;1831;53.626;10.012;2022-08-26T06:40:40;16.80;;;11.57;;
3629;SDS011;1831;53.626;10.012;2022-08-26T06:43:10;13.93;;;11.00;;
3629;SDS011;1831;53.626;10.012;2022-08-26T06:45:38;33.27;;;11.20;;
3629;SDS011;1831;53.626;10.012;2022-08-26T06:48:05;20.00;;;11.70;;
3629;SDS011;1831;53.626;10.012;2022-08-26T06:50:32;17.43;;;11.60;;
3629;SDS011;1831;53.626;10.012;2022-08-26T06:52:59;15.57;;;11.33;;
3629;SDS011;1831;53.626;10.012;2022-08-26T06:55:26;17.17;;;12.50;;
3629;SDS011;1831;53.626;10.012;2022-08-26T06:57:54;17.70;;;12.20;;
3629;SDS011;1831;53.626;10.012;2022-08-26T07:00:23;26.70;;;13.43;;
3629;SDS011;1831;53.626;10.012;2022-08-26T07:02:50;18.03;;;12.33;;
3629;SDS011;1831;53.626;10.012;2022-08-26T07:05:17;15.50;;;12.73;;
3629;SDS011;1831;53.626;10.012;2022-08-26T07:07:45;19.87;;;12.40;;
3629;SDS011;1831;53.626;10.012;2022-08-26T07:10:12;15.13;;;12.00;;
3629;SDS011;1831;53.626;10.012;2022-08-26T07:12:39;21.50;;;13.13;;
3629;SDS011;1831;53.626;10.012;2022-08-26T07:15:07;17.77;;;11.80;;
3629;SDS011;1831;53.626;10.012;2022-08-26T07:17:37;14.90;;;10.83;;
3629;SDS011;1831;53.626;10.012;2022-08-26T07:20:04;15.30;;;11.53;;
3629;SDS011;1831;53.626;10.012;2022-08-26T07:22:32;19.10;;;11.73;;
3629;SDS011;1831;53.626;10.012;2022-08-26T07:25:00;21.10;;;12.03;;
3629;SDS011;1831;53.626;10.012;2022-08-26T07:27:26;17.83;;;11.23;;
3629;SDS011;1831;53.626;10.012;2022-08-26T07:29:54;18.60;;;13.37;;
3629;SDS011;1831;53.626;10.012;2022-08-26T07:32:22;19.60;;;12.67;;
3629;SDS011;1831;53.626;10.012;2022-08-26T07:34:50;21.80;;;13.50;;
3629;SDS011;1831;53.626;10.012;2022-08-26T07:37:17;19.23;;;12.50;;
3629;SDS011;1831;53.626;10.012;2022-08-26T07:39:44;19.70;;;12.20;;
3629;SDS011;1831;53.626;10.012;2022-08-26T07:42:12;20.93;;;13.07;;
3629;SDS011;1831;53.626;10.012;2022-08-26T07:44:40;24.53;;;12.30;;
3629;SDS011;1831;53.626;10.012;2022-08-26T07:47:08;19.10;;;12.83;;
3629;SDS011;1831;53.626;10.012;2022-08-26T07:49:35;17.90;;;13.37;;
3629;SDS011;1831;53.626;10.012;2022-08-26T07:52:05;17.83;;;12.20;;
3629;SDS011;1831;53.626;10.012;2022-08-26T07:54:33;17.17;;;12.30;;
3629;SDS011;1831;53.626;10.012;2022-08-26T07:57:01;19.70;;;12.80;;
3629;SDS011;1831;53.626;10.012;2022-08-26T07:59:28;18.17;;;12.10;;
3629;SDS011;1831;53.626;10.012;2022-08-26T08:01:55;19.10;;;12.80;;
3629;SDS011;1831;53.626;10.012;2022-08-26T08:04:24;21.40;;;13.00;;
3629;SDS011;1831;53.626;10.012;2022-08-26T08:06:53;17.33;;;12.60;;
3629;SDS011;1831;53.626;10.012;2022-08-26T08:09:22;18.60;;;13.23;;
3629;SDS011;1831;53.626;10.012;2022-08-26T08:11:49;17.97;;;12.10;;
3629;SDS011;1831;53.626;10.012;2022-08-26T08:14:17;20.13;;;12.73;;
3629;SDS011;1831;53.626;10.012;2022-08-26T08:16:44;16.80;;;12.20;;
3629;SDS011;1831;53.626;10.012;2022-08-26T08:19:11;22.07;;;13.23;;
3629;SDS011;1831;53.626;10.012;2022-08-26T08:21:38;23.13;;;13.73;;
3629;SDS011;1831;53.626;10.012;2022-08-26T08:24:05;16.70;;;12.50;;
3629;SDS011;1831;53.626;10.012;2022-08-26T08:26:35;19.63;;;13.90;;
3629;SDS011;1831;53.626;10.012;2022-08-26T08:29:02;17.20;;;13.17;;
3629;SDS011;1831;53.626;10.012;2022-08-26T08:31:30;21.93;;;13.00;;
3629;SDS011;1831;53.626;10.012;2022-08-26T08:33:58;16.40;;;11.90;;
3629;SDS011;1831;53.626;10.012;2022-08-26T08:36:24;19.40;;;12.53;;
3629;SDS011;1831;53.626;10.012;2022-08-26T08:38:51;15.87;;;12.00;;
3629;SDS011;1831;53.626;10.012;2022-08-26T08:41:23;14.77;;;12.77;;
3629;SDS011;1831;53.626;10.012;2022-08-26T08:44:07;19.47;;;13.17;;
3629;SDS011;1831;53.626;10.012;2022-08-26T08:46:38;18.63;;;12.87;;
3629;SDS011;1831;53.626;10.012;2022-08-26T08:49:07;18.03;;;12.73;;
3629;SDS011;1831;53.626;10.012;2022-08-26T08:51:36;20.10;;;11.93;;
3629;SDS011;1831;53.626;10.012;2022-08-26T08:54:06;21.07;;;13.60;;
3629;SDS011;1831;53.626;10.012;2022-08-26T08:56:35;23.17;;;13.60;;
3629;SDS011;1831;53.626;10.012;2022-08-26T08:59:11;24.87;;;14.60;;
3629;SDS011;1831;53.626;10.012;2022-08-26T09:01:44;19.60;;;15.40;;
3629;SDS011;1831;53.626;10.012;2022-08-26T09:04:35;21.50;;;12.40;;
3629;SDS011;1831;53.626;10.012;2022-08-26T09:07:19;28.57;;;12.10;;
3629;SDS011;1831;53.626;10.012;2022-08-26T09:09:50;15.20;;;11.20;;
3629;SDS011;1831;53.626;10.012;2022-08-26T09:12:23;16.60;;;10.90;;
3629;SDS011;1831;53.626;10.012;2022-08-26T09:14:52;17.67;;;11.27;;
3629;SDS011;1831;53.626;10.012;2022-08-26T09:17:27;15.77;;;11.77;;
3629;SDS011;1831;53.626;10.012;2022-08-26T09:20:02;17.87;;;12.43;;
3629;SDS011;1831;53.626;10.012;2022-08-26T09:22:36;16.10;;;11.77;;
3629;SDS011;1831;53.626;10.012;2022-08-26T09:25:05;18.40;;;12.40;;
3629;SDS011;1831;53.626;10.012;2022-08-26T09:27:36;18.80;;;11.97;;
3629;SDS011;1831;53.626;10.012;2022-08-26T09:30:06;15.90;;;11.33;;
3629;SDS011;1831;53.626;10.012;2022-08-26T09:32:34;22.80;;;11.53;;
3629;SDS011;1831;53.626;10.012;2022-08-26T09:35:02;18.57;;;11.67;;
3629;SDS011;1831;53.626;10.012;2022-08-26T09:37:36;18.73;;;12.57;;
3629;SDS011;1831;53.626;10.012;2022-08-26T09:40:14;14.80;;;12.13;;
3629;SDS011;1831;53.626;10.012;2022-08-26T09:42:45;15.97;;;11.53;;
3629;SDS011;1831;53.626;10.012;2022-08-26T09:45:12;17.60;;;12.23;;
3629;SDS011;1831;53.626;10.012;2022-08-26T09:47:40;20.27;;;12.13;;
3629;SDS011;1831;53.626;10.012;2022-08-26T09:50:26;18.37;;;12.80;;
3629;SDS011;1831;53.626;10.012;2022-08-26T09:53:05;17.20;;;11.63;;
3629;SDS011;1831;53.626;10.012;2022-08-26T09:55:34;17.10;;;12.20;;
3629;SDS011;1831;53.626;10.012;2022-08-26T09:58:03;18.53;;;11.23;;
3629;SDS011;1831;53.626;10.012;2022-08-26T10:00:31;28.07;;;13.13;;
3629;SDS011;1831;53.626;10.012;2022-08-26T10:03:00;17.70;;;11.93;;
3629;SDS011;1831;53.626;10.012;2022-08-26T10:05:31;19.30;;;13.60;;
3629;SDS011;1831;53.626;10.012;2022-08-26T10:08:13;18.40;;;13.10;;
3629;SDS011;1831;53.626;10.012;2022-08-26T10:10:45;18.30;;;11.80;;
3629;SDS011;1831;53.626;10.012;2022-08-26T10:13:14;15.83;;;13.17;;
3629;SDS011;1831;53.626;10.012;2022-08-26T10:15:51;19.80;;;13.60;;
3629;SDS011;1831;53.626;10.012;2022-08-26T10:18:26;24.87;;;14.20;;
3629;SDS011;1831;53.626;10.012;2022-08-26T10:20:59;18.60;;;12.30;;
3629;SDS011;1831;53.626;10.012;2022-08-26T10:23:31;21.43;;;12.50;;
3629;SDS011;1831;53.626;10.012;2022-08-26T10:26:06;20.60;;;13.40;;
3629;SDS011;1831;53.626;10.012;2022-08-26T10:28:39;16.13;;;12.67;;
3629;SDS011;1831;53.626;10.012;2022-08-26T10:31:22;22.70;;;13.93;;
3629;SDS011;1831;53.626;10.012;2022-08-26T10:33:54;17.13;;;12.30;;
3629;SDS011;1831;53.626;10.012;2022-08-26T10:36:22;20.40;;;12.90;;
3629;SDS011;1831;53.626;10.012;2022-08-26T10:39:10;21.57;;;14.10;;
3629;SDS011;1831;53.626;10.012;2022-08-26T10:41:43;18.70;;;14.30;;
3629;SDS011;1831;53.626;10.012;2022-08-26T10:44:14;25.87;;;14.90;;
3629;SDS011;1831;53.626;10.012;2022-08-26T10:46:43;19.50;;;13.50;;
3629;SDS011;1831;53.626;10.012;2022-08-26T10:49:14;21.10;;;14.40;;
3629;SDS011;1831;53.626;10.012;2022-08-26T10:51:44;23.30;;;13.60;;
3629;SDS011;1831;53.626;10.012;2022-08-26T10:54:19;20.70;;;13.83;;
3629;SDS011;1831;53.626;10.012;2022-08-26T10:56:51;27.53;;;14.20;;
3629;SDS011;1831;53.626;10.012;2022-08-26T10:59:30;24.07;;;13.70;;
3629;SDS011;1831;53.626;10.012;2022-08-26T11:02:10;25.23;;;13.17;;
3629;SDS011;1831;53.626;10.012;2022-08-26T11:04:47;19.93;;;14.20;;
3629;SDS011;1831;53.626;10.012;2022-08-26T11:07:28;24.37;;;14.50;;
3629;SDS011;1831;53.626;10.012;2022-08-26T11:10:00;20.40;;;13.37;;
3629;SDS011;1831;53.626;10.012;2022-08-26T11:12:47;27.70;;;14.07;;
3629;SDS011;1831;53.626;10.012;2022-08-26T11:18:39;24.77;;;19.87;;
3629;SDS011;1831;53.626;10.012;2022-08-26T11:27:08;20.90;;;13.20;;
3629;SDS011;1831;53.626;10.012;2022-08-26T11:29:55;22.33;;;13.50;;
3629;SDS011;1831;53.626;10.012;2022-08-26T11:38:22;24.53;;;12.93;;
3629;SDS011;1831;53.626;10.012;2022-08-26T11:40:58;22.43;;;14.27;;
3629;SDS011;1831;53.626;10.012;2022-08-26T11:43:31;17.97;;;12.70;;
3629;SDS011;1831;53.626;10.012;2022-08-26T11:46:01;19.40;;;11.73;;
3629;SDS011;1831;53.626;10.012;2022-08-26T11:48:30;15.70;;;13.00;;
3629;SDS011;1831;53.626;10.012;2022-08-26T11:51:01;16.67;;;12.33;;
3629;SDS011;1831;53.626;10.012;2022-08-26T11:53:30;24.20;;;13.30;;
3629;SDS011;1831;53.626;10.012;2022-08-26T11:56:03;24.87;;;12.97;;
3629;SDS011;1831;53.626;10.012;2022-08-26T11:58:31;17.20;;;11.83;;
3629;SDS011;1831;53.626;10.012;2022-08-26T12:01:00;21.83;;;11.80;;
3629;SDS011;1831;53.626;10.012;2022-08-26T12:03:33;21.97;;;13.03;;
3629;SDS011;1831;53.626;10.012;2022-08-26T12:06:10;19.40;;;12.50;;
3629;SDS011;1831;53.626;10.012;2022-08-26T12:08:40;21.10;;;13.17;;
3629;SDS011;1831;53.626;10.012;2022-08-26T12:11:10;23.20;;;13.40;;
3629;SDS011;1831;53.626;10.012;2022-08-26T12:13:51;20.30;;;12.73;;
3629;SDS011;1831;53.626;10.012;2022-08-26T12:16:21;20.07;;;14.23;;
3629;SDS011;1831;53.626;10.012;2022-08-26T12:18:49;17.43;;;12.20;;
3629;SDS011;1831;53.626;10.012;2022-08-26T12:21:20;19.13;;;13.10;;
3629;SDS011;1831;53.626;10.012;2022-08-26T12:23:49;18.87;;;13.50;;
3629;SDS011;1831;53.626;10.012;2022-08-26T12:26:21;18.00;;;13.27;;
3629;SDS011;1831;53.626;10.012;2022-08-26T12:28:52;15.13;;;13.23;;
3629;SDS011;1831;53.626;10.012;2022-08-26T12:31:25;19.87;;;13.97;;
3629;SDS011;1831;53.626;10.012;2022-08-26T12:33:55;20.00;;;13.50;;
3629;SDS011;1831;53.626;10.012;2022-08-26T12:36:26;19.73;;;13.73;;
3629;SDS011;1831;53.626;10.012;2022-08-26T12:38:56;16.47;;;13.00;;
3629;SDS011;1831;53.626;10.012;2022-08-26T12:41:41;22.97;;;13.80;;
3629;SDS011;1831;53.626;10.012;2022-08-26T12:47:04;20.10;;;12.93;;
3629;SDS011;1831;53.626;10.012;2022-08-26T12:49:34;19.03;;;13.20;;
3629;SDS011;1831;53.626;10.012;2022-08-26T12:52:06;20.03;;;13.80;;
3629;SDS011;1831;53.626;10.012;2022-08-26T12:54:53;19.00;;;12.70;;
3629;SDS011;1831;53.626;10.012;2022-08-26T12:57:25;21.43;;;14.37;;
3629;SDS011;1831;53.626;10.012;2022-08-26T12:59:56;25.93;;;13.70;;
3629;SDS011;1831;53.626;10.012;2022-08-26T13:02:54;21.40;;;13.50;;
3629;SDS011;1831;53.626;10.012;2022-08-26T13:05:23;20.07;;;13.17;;
3629;SDS011;1831;53.626;10.012;2022-08-26T13:08:13;24.07;;;13.70;;
3629;SDS011;1831;53.626;10.012;2022-08-26T13:10:42;23.50;;;14.00;;
3629;SDS011;1831;53.626;10.012;2022-08-26T13:13:11;22.40;;;13.40;;
3629;SDS011;1831;53.626;10.012;2022-08-26T13:15:38;20.33;;;14.00;;
3629;SDS011;1831;53.626;10.012;2022-08-26T13:18:05;20.00;;;12.93;;
3629;SDS011;1831;53.626;10.012;2022-08-26T13:20:32;23.13;;;14.40;;
3629;SDS011;1831;53.626;10.012;2022-08-26T13:22:59;26.47;;;15.00;;
3629;SDS011;1831;53.626;10.012;2022-08-26T13:25:28;21.97;;;14.47;;
3629;SDS011;1831;53.626;10.012;2022-08-26T13:27:55;18.70;;;14.80;;
3629;SDS011;1831;53.626;10.012;2022-08-26T13:30:22;19.63;;;12.60;;
3629;SDS011;1831;53.626;10.012;2022-08-26T13:32:49;34.93;;;13.40;;
3629;SDS011;1831;53.626;10.012;2022-08-26T13:35:21;20.20;;;14.57;;
3629;SDS011;1831;53.626;10.012;2022-08-26T13:37:48;23.00;;;14.83;;
3629;SDS011;1831;53.626;10.012;2022-08-26T13:40:15;21.60;;;14.00;;
3629;SDS011;1831;53.626;10.012;2022-08-26T13:42:43;18.00;;;13.33;;
3629;SDS011;1831;53.626;10.012;2022-08-26T13:45:10;17.90;;;12.90;;
3629;SDS011;1831;53.626;10.012;2022-08-26T13:47:37;20.83;;;15.27;;
3629;SDS011;1831;53.626;10.012;2022-08-26T13:50:05;18.30;;;14.10;;
3629;SDS011;1831;53.626;10.012;2022-08-26T13:52:32;22.10;;;14.67;;
3629;SDS011;1831;53.626;10.012;2022-08-26T13:54:59;17.03;;;13.37;;
3629;SDS011;1831;53.626;10.012;2022-08-26T13:57:26;26.70;;;14.43;;
3629;SDS011;1831;53.626;10.012;2022-08-26T13:59:55;21.20;;;15.77;;
3629;SDS011;1831;53.626;10.012;2022-08-26T14:02:23;24.40;;;15.17;;
3629;SDS011;1831;53.626;10.012;2022-08-26T14:04:51;21.23;;;14.90;;
3629;SDS011;1831;53.626;10.012;2022-08-26T14:07:19;20.40;;;13.70;;
3629;SDS011;1831;53.626;10.012;2022-08-26T14:09:46;24.27;;;15.47;;
3629;SDS011;1831;53.626;10.012;2022-08-26T14:12:13;24.13;;;13.90;;
3629;SDS011;1831;53.626;10.012;2022-08-26T14:14:40;19.13;;;14.70;;
3629;SDS011;1831;53.626;10.012;2022-08-26T14:17:09;20.77;;;13.77;;
3629;SDS011;1831;53.626;10.012;2022-08-26T14:19:37;19.80;;;14.33;;
3629;SDS011;1831;53.626;10.012;2022-08-26T14:22:08;23.07;;;14.87;;
3629;SDS011;1831;53.626;10.012;2022-08-26T14:24:34;22.73;;;15.40;;
3629;SDS011;1831;53.626;10.012;2022-08-26T14:27:01;26.50;;;14.10;;
3629;SDS011;1831;53.626;10.012;2022-08-26T14:29:29;19.33;;;14.10;;
3629;SDS011;1831;53.626;10.012;2022-08-26T14:31:56;22.03;;;12.70;;
3629;SDS011;1831;53.626;10.012;2022-08-26T14:34:27;21.00;;;14.60;;
3629;SDS011;1831;53.626;10.012;2022-08-26T14:36:54;26.43;;;13.77;;
3629;SDS011;1831;53.626;10.012;2022-08-26T14:39:21;24.60;;;15.73;;
3629;SDS011;1831;53.626;10.012;2022-08-26T14:41:49;18.23;;;13.60;;
3629;SDS011;1831;53.626;10.012;2022-08-26T14:44:19;20.33;;;13.10;;
3629;SDS011;1831;53.626;10.012;2022-08-26T14:46:48;15.77;;;12.23;;
3629;SDS011;1831;53.626;10.012;2022-08-26T14:49:16;18.07;;;13.50;;
3629;SDS011;1831;53.626;10.012;2022-08-26T14:51:47;22.77;;;11.90;;
3629;SDS011;1831;53.626;10.012;2022-08-26T14:54:15;14.90;;;11.80;;
3629;SDS011;1831;53.626;10.012;2022-08-26T14:56:45;14.27;;;11.30;;
3629;SDS011;1831;53.626;10.012;2022-08-26T14:59:14;13.83;;;11.63;;
3629;SDS011;1831;53.626;10.012;2022-08-26T15:01:43;13.70;;;10.73;;
3629;SDS011;1831;53.626;10.012;2022-08-26T15:04:10;16.33;;;11.47;;
3629;SDS011;1831;53.626;10.012;2022-08-26T15:06:37;25.50;;;11.63;;
3629;SDS011;1831;53.626;10.012;2022-08-26T15:09:05;12.30;;;10.17;;
3629;SDS011;1831;53.626;10.012;2022-08-26T15:11:33;17.53;;;10.70;;